createdAt,value
2022-10-13T00:00:53.206Z,100.00
2022-10-13T00:03:21.182Z,100.00
2022-10-13T00:05:50.981Z,100.00
2022-10-13T00:08:21.344Z,100.00
2022-10-13T00:10:51.767Z,100.00
2022-10-13T00:13:24.888Z,100.00
2022-10-13T00:15:52.860Z,100.00
2022-10-13T00:18:22.187Z,100.00
2022-10-13T00:20:51.903Z,100.00
2022-10-13T00:23:19.730Z,100.00
2022-10-13T00:25:49.271Z,100.00
2022-10-13T00:28:21.075Z,100.00
2022-10-13T00:30:49.020Z,100.00
2022-10-13T00:33:17.014Z,100.00
2022-10-13T00:35:46.933Z,100.00
2022-10-13T00:38:16.495Z,100.00
2022-10-13T00:40:46.163Z,100.00
2022-10-13T00:43:23.818Z,100.00
2022-10-13T00:45:52.785Z,100.00
2022-10-13T00:48:24.769Z,100.00
2022-10-13T00:50:54.021Z,100.00
2022-10-13T00:53:24.325Z,100.00
2022-10-13T00:55:53.422Z,100.00
2022-10-13T00:58:31.207Z,100.00
2022-10-13T01:01:00.130Z,100.00
2022-10-13T01:03:28.612Z,100.00
2022-10-13T01:06:00.408Z,100.00
2022-10-13T01:08:29.973Z,100.00
2022-10-13T01:11:15.952Z,100.00
2022-10-13T01:13:52.484Z,100.00
2022-10-13T01:16:30.949Z,100.00
2022-10-13T01:19:17.316Z,100.00
2022-10-13T01:21:51.706Z,100.00
2022-10-13T01:24:39.806Z,100.00
2022-10-13T01:27:34.390Z,100.00
2022-10-13T01:30:10.445Z,100.00
2022-10-13T01:32:58.703Z,100.00
2022-10-13T01:35:39.619Z,100.00
2022-10-13T01:38:12.383Z,100.00
2022-10-13T01:40:46.071Z,100.00
2022-10-13T01:43:21.246Z,100.00
2022-10-13T01:45:55.727Z,100.00
2022-10-13T01:48:25.209Z,100.00
2022-10-13T01:50:54.881Z,100.00
2022-10-13T01:53:23.650Z,100.00
2022-10-13T01:55:56.976Z,100.00
2022-10-13T01:58:28.356Z,100.00
2022-10-13T02:01:07.231Z,100.00
2022-10-13T02:03:44.967Z,100.00
2022-10-13T02:06:21.940Z,100.00
2022-10-13T02:08:59.398Z,100.00
2022-10-13T02:11:28.916Z,100.00
2022-10-13T02:14:03.163Z,100.00
2022-10-13T02:16:37.531Z,100.00
2022-10-13T02:19:07.788Z,100.00
2022-10-13T02:21:36.919Z,100.00
2022-10-13T02:24:05.696Z,100.00
2022-10-13T02:26:34.653Z,100.00
2022-10-13T02:29:11.615Z,100.00
2022-10-13T02:31:42.211Z,100.00
2022-10-13T02:34:10.176Z,100.00
2022-10-13T02:36:39.109Z,100.00
2022-10-13T02:39:08.531Z,100.00
2022-10-13T02:41:36.889Z,100.00
2022-10-13T02:44:05.378Z,100.00
2022-10-13T02:46:43.075Z,100.00
2022-10-13T02:49:11.322Z,100.00
2022-10-13T02:51:40.378Z,100.00
2022-10-13T02:54:08.657Z,100.00
2022-10-13T02:56:36.626Z,100.00
2022-10-13T02:59:04.657Z,100.00
2022-10-13T03:01:32.881Z,100.00
2022-10-13T03:04:02.204Z,100.00
2022-10-13T03:06:30.057Z,100.00
2022-10-13T03:08:58.016Z,100.00
2022-10-13T03:11:26.286Z,100.00
2022-10-13T03:13:54.210Z,100.00
2022-10-13T03:16:22.082Z,100.00
2022-10-13T03:18:49.961Z,100.00
2022-10-13T03:21:19.203Z,100.00
2022-10-13T03:23:47.095Z,100.00
2022-10-13T03:26:15.560Z,100.00
2022-10-13T03:28:43.626Z,100.00
2022-10-13T03:31:13.696Z,100.00
2022-10-13T03:33:42.080Z,100.00
2022-10-13T03:36:11.608Z,100.00
2022-10-13T03:38:42.506Z,100.00
2022-10-13T03:41:13.834Z,100.00
2022-10-13T03:43:42.725Z,100.00
2022-10-13T03:46:13.792Z,100.00
2022-10-13T03:48:42.413Z,100.00
2022-10-13T03:51:12.741Z,100.00
2022-10-13T03:53:47.878Z,100.00
2022-10-13T03:56:18.865Z,100.00
2022-10-13T03:58:54.539Z,100.00
2022-10-13T04:01:23.924Z,100.00
2022-10-13T04:03:53.893Z,100.00
2022-10-13T04:06:22.959Z,100.00
2022-10-13T04:08:52.588Z,100.00
2022-10-13T04:11:21.043Z,100.00
2022-10-13T04:13:53.605Z,100.00
2022-10-13T04:16:24.441Z,100.00
2022-10-13T04:18:54.103Z,100.00
2022-10-13T04:21:23.067Z,100.00
2022-10-13T04:23:52.328Z,100.00
2022-10-13T04:26:22.075Z,100.00
2022-10-13T04:28:51.933Z,100.00
2022-10-13T04:31:21.979Z,100.00
2022-10-13T04:33:50.362Z,100.00
2022-10-13T04:36:19.003Z,100.00
2022-10-13T04:38:48.691Z,100.00
2022-10-13T04:41:20.013Z,100.00
2022-10-13T04:43:49.523Z,100.00
2022-10-13T04:46:19.383Z,100.00
2022-10-13T04:48:47.876Z,100.00
2022-10-13T04:51:18.289Z,100.00
2022-10-13T04:53:46.407Z,100.00
2022-10-13T04:56:18.248Z,100.00
2022-10-13T04:58:47.289Z,100.00
2022-10-13T05:01:21.851Z,100.00
2022-10-13T05:03:52.282Z,100.00
2022-10-13T05:06:21.751Z,100.00
2022-10-13T05:08:50.650Z,100.00
2022-10-13T05:11:20.707Z,100.00
2022-10-13T05:13:49.506Z,100.00
2022-10-13T05:16:19.848Z,100.00
2022-10-13T05:18:47.985Z,100.00
2022-10-13T05:21:18.259Z,100.00
2022-10-13T05:23:46.686Z,100.00
2022-10-13T05:26:17.230Z,100.00
2022-10-13T05:28:46.669Z,100.00
2022-10-13T05:31:17.859Z,100.00
2022-10-13T05:33:46.686Z,100.00
2022-10-13T05:36:23.033Z,100.00
2022-10-13T05:38:53.179Z,100.00
2022-10-13T05:41:22.397Z,100.00
2022-10-13T05:43:54.336Z,100.00
2022-10-13T05:46:22.207Z,100.00
2022-10-13T05:48:49.998Z,100.00
2022-10-13T05:51:21.726Z,100.00
2022-10-13T05:53:57.545Z,100.00
2022-10-13T05:56:30.675Z,100.00
2022-10-13T05:59:04.147Z,100.00
2022-10-13T06:01:35.150Z,100.00
2022-10-13T06:04:05.858Z,100.00
2022-10-13T06:06:33.984Z,100.00
2022-10-13T06:09:02.358Z,100.00
2022-10-13T06:11:30.235Z,100.00
2022-10-13T06:13:58.089Z,100.00
2022-10-13T06:16:27.327Z,100.00
2022-10-13T06:18:56.246Z,100.00
2022-10-13T06:21:24.620Z,100.00
2022-10-13T06:23:52.429Z,100.00
2022-10-13T06:26:21.261Z,100.00
2022-10-13T06:28:50.579Z,100.00
2022-10-13T06:31:22.959Z,100.00
2022-10-13T06:33:52.229Z,100.00
2022-10-13T06:36:20.147Z,100.00
2022-10-13T06:38:47.978Z,100.00
2022-10-13T06:41:18.074Z,100.00
2022-10-13T06:43:46.088Z,100.00
2022-10-13T06:46:14.070Z,100.00
2022-10-13T06:48:42.023Z,100.00
2022-10-13T06:51:13.399Z,100.00
2022-10-13T06:53:41.402Z,100.00
2022-10-13T06:56:09.885Z,100.00
2022-10-13T06:58:38.496Z,100.00
2022-10-13T07:01:07.259Z,100.00
2022-10-13T07:03:35.244Z,100.00
2022-10-13T07:06:03.770Z,100.00
2022-10-13T07:08:34.074Z,100.00
2022-10-13T07:11:11.655Z,100.00
2022-10-13T07:13:46.466Z,100.00
2022-10-13T07:16:15.798Z,100.00
2022-10-13T07:18:43.811Z,100.00
2022-10-13T07:21:11.672Z,100.00
2022-10-13T07:23:41.178Z,100.00
2022-10-13T07:26:10.693Z,100.00
2022-10-13T07:28:39.088Z,100.00
2022-10-13T07:31:11.912Z,100.00
2022-10-13T07:33:39.818Z,100.00
2022-10-13T07:36:08.423Z,100.00
2022-10-13T07:38:36.372Z,100.00
2022-10-13T07:41:08.129Z,100.00
2022-10-13T07:43:36.907Z,100.00
2022-10-13T07:46:06.828Z,100.00
2022-10-13T07:48:35.674Z,100.00
2022-10-13T07:51:05.923Z,100.00
2022-10-13T07:53:35.281Z,100.00
2022-10-13T07:56:06.091Z,100.00
2022-10-13T07:58:34.610Z,100.00
2022-10-13T08:01:03.105Z,100.00
2022-10-13T08:03:31.559Z,100.00
2022-10-13T08:06:00.248Z,100.00
2022-10-13T08:08:28.707Z,100.00
2022-10-13T08:11:01.557Z,100.00
2022-10-13T08:13:30.804Z,100.00
2022-10-13T08:16:01.542Z,100.00
2022-10-13T08:18:30.016Z,100.00
2022-10-13T08:21:32.962Z,100.00
2022-10-13T08:23:50.117Z,100.00
2022-10-13T08:26:21.962Z,100.00
2022-10-13T08:29:09.501Z,100.00
2022-10-13T08:31:41.479Z,100.00
2022-10-13T08:34:09.921Z,100.00
2022-10-13T08:36:38.129Z,100.00
2022-10-13T08:39:06.205Z,100.00
2022-10-13T08:41:39.580Z,100.00
2022-10-13T08:47:13.410Z,100.00
2022-10-13T08:49:42.419Z,100.00
2022-10-13T08:52:19.117Z,100.00
2022-10-13T08:54:47.702Z,100.00
2022-10-13T08:57:16.513Z,100.00
2022-10-13T08:59:45.926Z,100.00
2022-10-13T09:02:15.639Z,100.00
2022-10-13T09:04:49.324Z,100.00
2022-10-13T09:07:22.270Z,100.00
2022-10-13T09:09:52.610Z,99.89
2022-10-13T09:12:24.268Z,98.00
2022-10-13T09:15:01.510Z,97.73
2022-10-13T09:17:30.700Z,98.26
2022-10-13T09:20:01.602Z,97.48
2022-10-13T09:22:31.571Z,96.29
2022-10-13T09:25:11.107Z,94.30
2022-10-13T09:27:45.198Z,94.41
2022-10-13T09:30:27.474Z,96.27
2022-10-13T09:33:15.453Z,98.38
2022-10-13T09:35:45.646Z,97.75
2022-10-13T09:38:17.234Z,96.16
2022-10-13T09:41:00.205Z,93.92
2022-10-13T09:43:34.967Z,94.86
2022-10-13T09:46:13.271Z,91.56
2022-10-13T09:48:42.493Z,90.57
2022-10-13T09:51:31.121Z,89.46
2022-10-13T09:53:59.044Z,88.27
2022-10-13T09:56:32.640Z,88.34
2022-10-13T09:59:09.773Z,89.40
2022-10-13T10:01:46.559Z,88.35
2022-10-13T10:04:18.133Z,85.74
2022-10-13T10:06:46.917Z,84.31
2022-10-13T10:09:33.075Z,85.03
2022-10-13T10:12:02.404Z,85.32
2022-10-13T10:14:33.114Z,84.28
2022-10-13T10:17:08.666Z,85.84
2022-10-13T10:19:48.957Z,85.21
2022-10-13T10:22:26.350Z,86.60
2022-10-13T10:25:00.925Z,86.29
2022-10-13T10:27:37.719Z,84.90
2022-10-13T10:30:15.636Z,81.16
2022-10-13T10:32:53.184Z,80.81
2022-10-13T10:35:37.617Z,81.02
2022-10-13T10:38:20.219Z,82.42
2022-10-13T10:40:56.628Z,81.79
2022-10-13T10:43:38.285Z,83.22
2022-10-13T10:46:16.870Z,83.32
2022-10-13T10:48:47.869Z,83.66
2022-10-13T10:51:16.066Z,84.01
2022-10-13T10:53:55.279Z,83.56
2022-10-13T10:56:31.278Z,82.39
2022-10-13T10:59:26.051Z,84.84
2022-10-13T11:02:12.344Z,85.02
2022-10-13T11:04:44.594Z,84.31
2022-10-13T11:07:15.817Z,84.37
2022-10-13T11:10:17.536Z,83.45
2022-10-13T11:13:07.403Z,82.87
2022-10-13T11:15:43.919Z,81.57
2022-10-13T11:18:49.330Z,81.69
2022-10-13T11:21:18.698Z,82.82
2022-10-13T11:23:48.369Z,81.41
2022-10-13T11:26:41.777Z,79.99
2022-10-13T11:29:19.845Z,80.68
2022-10-13T11:31:54.179Z,80.77
2022-10-13T11:34:33.217Z,81.39
2022-10-13T11:37:18.338Z,80.38
2022-10-13T11:40:22.252Z,78.66
2022-10-13T11:43:20.062Z,81.28
2022-10-13T11:46:26.607Z,80.49
2022-10-13T11:49:18.130Z,81.46
2022-10-13T11:52:03.644Z,81.32
2022-10-13T11:54:37.639Z,82.61
2022-10-13T11:57:19.121Z,83.40
2022-10-13T11:59:48.655Z,82.94
2022-10-13T12:02:19.211Z,82.30
2022-10-13T12:05:02.436Z,82.76
2022-10-13T12:07:35.743Z,81.85
2022-10-13T12:10:09.799Z,82.04
2022-10-13T12:12:38.026Z,81.82
2022-10-13T12:15:30.993Z,82.44
2022-10-13T12:17:58.975Z,81.91
2022-10-13T12:20:32.393Z,81.87
2022-10-13T12:23:00.264Z,81.23
2022-10-13T12:25:31.135Z,82.14
2022-10-13T12:28:01.588Z,81.87
2022-10-13T12:30:30.969Z,82.01
2022-10-13T12:33:00.785Z,81.97
2022-10-13T12:35:30.783Z,81.61
2022-10-13T12:38:01.894Z,80.84
2022-10-13T12:40:31.470Z,80.23
2022-10-13T12:42:59.570Z,80.29
2022-10-13T12:45:35.431Z,81.32
2022-10-13T12:48:03.289Z,81.35
2022-10-13T12:50:37.012Z,82.42
2022-10-13T12:53:15.506Z,81.97
2022-10-13T12:56:00.593Z,83.07
2022-10-13T12:58:31.445Z,83.61
2022-10-13T13:01:07.663Z,83.91
2022-10-13T13:03:38.917Z,84.58
2022-10-13T13:06:26.711Z,85.74
2022-10-13T13:09:26.916Z,86.22
2022-10-13T13:12:23.058Z,88.06
2022-10-13T13:14:54.837Z,87.73
2022-10-13T13:17:57.171Z,88.02
2022-10-13T13:20:27.987Z,89.38
2022-10-13T13:22:56.392Z,90.44
2022-10-13T13:25:25.070Z,91.11
2022-10-13T13:27:54.874Z,93.07
2022-10-13T13:30:24.657Z,93.02
2022-10-13T13:32:52.868Z,91.95
2022-10-13T13:35:20.703Z,93.53
2022-10-13T13:37:51.183Z,94.24
2022-10-13T13:40:19.855Z,94.44
2022-10-13T13:42:47.714Z,94.86
2022-10-13T13:45:18.809Z,96.36
2022-10-13T13:47:47.381Z,96.52
2022-10-13T13:50:18.555Z,95.85
2022-10-13T13:52:57.369Z,94.82
2022-10-13T13:55:25.412Z,94.45
2022-10-13T13:57:53.419Z,95.70
2022-10-13T14:00:23.947Z,93.16
2022-10-13T14:02:55.951Z,93.31
2022-10-13T14:05:24.073Z,94.37
2022-10-13T14:07:54.421Z,93.41
2022-10-13T14:10:22.196Z,95.09
2022-10-13T14:12:50.083Z,96.20
2022-10-13T14:15:18.086Z,96.80
2022-10-13T14:17:47.332Z,95.09
2022-10-13T14:20:15.286Z,94.52
2022-10-13T14:22:45.397Z,93.63
2022-10-13T14:25:15.373Z,94.37
2022-10-13T14:27:45.698Z,96.82
2022-10-13T14:30:15.039Z,98.82
2022-10-13T14:32:43.113Z,99.41
2022-10-13T14:35:12.705Z,99.85
2022-10-13T14:37:40.733Z,99.81
2022-10-13T14:40:09.357Z,100.00
2022-10-13T14:42:39.181Z,99.89
2022-10-13T14:45:08.267Z,100.00
2022-10-13T14:47:36.235Z,100.00
2022-10-13T14:50:04.154Z,99.97
2022-10-13T14:52:33.498Z,99.78
2022-10-13T14:55:01.326Z,100.00
2022-10-13T14:57:29.209Z,100.00
2022-10-13T15:00:01.692Z,99.03
2022-10-13T15:02:30.391Z,98.42
2022-10-13T15:04:58.879Z,97.79
2022-10-13T15:07:26.674Z,96.23
2022-10-13T15:10:11.265Z,96.04
2022-10-13T15:12:39.253Z,96.46
2022-10-13T15:15:07.732Z,96.79
2022-10-13T15:17:36.908Z,96.28
2022-10-13T15:20:05.774Z,94.83
2022-10-13T15:22:33.794Z,94.97
2022-10-13T15:25:04.428Z,95.05
2022-10-13T15:27:32.383Z,95.42
2022-10-13T15:30:00.670Z,98.71
2022-10-13T15:32:28.583Z,100.00
2022-10-13T15:35:01.859Z,100.00
2022-10-13T15:37:31.046Z,100.00
2022-10-13T15:39:58.842Z,100.00
2022-10-13T15:42:28.071Z,100.00
2022-10-13T15:45:11.785Z,100.00
2022-10-13T15:47:40.124Z,100.00
2022-10-13T15:50:09.409Z,100.00
2022-10-13T15:52:40.581Z,99.69
2022-10-13T15:55:09.515Z,98.28
2022-10-13T15:57:39.195Z,96.94
2022-10-13T16:00:09.565Z,99.32
2022-10-13T16:02:41.393Z,99.91
2022-10-13T16:05:11.551Z,100.00
2022-10-13T16:07:40.211Z,100.00
2022-10-13T16:10:10.042Z,100.00
2022-10-13T16:12:40.022Z,100.00
2022-10-13T16:15:09.423Z,100.00
2022-10-13T16:17:37.975Z,100.00
2022-10-13T16:20:07.223Z,100.00
2022-10-13T16:22:35.025Z,100.00
2022-10-13T16:25:02.858Z,100.00
2022-10-13T16:27:30.765Z,100.00
2022-10-13T16:30:00.040Z,100.00
2022-10-13T16:32:27.899Z,100.00
2022-10-13T16:34:56.400Z,100.00
2022-10-13T16:37:24.395Z,100.00
2022-10-13T16:39:52.485Z,100.00
2022-10-13T16:42:20.394Z,100.00
2022-10-13T16:48:50.292Z,100.00
2022-10-13T16:51:20.255Z,100.00
2022-10-13T16:53:49.620Z,100.00
2022-10-13T16:56:21.930Z,100.00
2022-10-13T16:58:49.915Z,100.00
2022-10-13T17:01:17.922Z,100.00
2022-10-13T17:03:46.847Z,100.00
2022-10-13T17:06:16.371Z,100.00
2022-10-13T17:08:45.418Z,100.00
2022-10-13T17:11:17.900Z,100.00
2022-10-13T17:13:46.090Z,100.00
2022-10-13T17:16:14.316Z,100.00
2022-10-13T17:18:43.741Z,100.00
2022-10-13T17:21:14.304Z,100.00
2022-10-13T17:23:48.303Z,100.00
2022-10-13T17:26:18.774Z,100.00
2022-10-13T17:28:46.729Z,100.00
2022-10-13T17:31:18.089Z,100.00
2022-10-13T17:33:47.664Z,100.00
2022-10-13T17:36:18.343Z,100.00
2022-10-13T17:38:48.725Z,100.00
2022-10-13T17:41:17.486Z,100.00
2022-10-13T17:43:49.554Z,100.00
2022-10-13T17:49:08.191Z,100.00
2022-10-13T17:51:36.182Z,100.00
2022-10-13T17:54:05.804Z,100.00
2022-10-13T17:56:33.869Z,100.00
2022-10-13T17:59:02.336Z,100.00
2022-10-13T18:01:32.520Z,100.00
2022-10-13T18:04:03.217Z,100.00
2022-10-13T18:06:37.858Z,100.00
2022-10-13T18:09:08.911Z,100.00
2022-10-13T18:11:37.163Z,100.00
2022-10-13T18:14:05.799Z,100.00
2022-10-13T18:16:33.904Z,100.00
2022-10-13T18:19:01.910Z,100.00
2022-10-13T18:21:29.942Z,100.00
2022-10-13T18:23:59.351Z,100.00
2022-10-13T18:26:31.744Z,100.00
2022-10-13T18:28:59.814Z,100.00
2022-10-13T18:31:29.810Z,100.00
2022-10-13T18:34:02.560Z,100.00
2022-10-13T18:36:32.392Z,100.00
2022-10-13T18:39:04.654Z,100.00
2022-10-13T18:41:35.738Z,100.00
2022-10-13T18:44:03.972Z,100.00
2022-10-13T18:46:32.041Z,100.00
2022-10-13T18:49:00.129Z,100.00
2022-10-13T18:51:33.412Z,100.00
2022-10-13T18:54:03.783Z,100.00
2022-10-13T18:56:34.062Z,100.00
2022-10-13T18:59:02.925Z,100.00
2022-10-13T19:01:32.315Z,100.00
2022-10-13T19:04:00.875Z,100.00
2022-10-13T19:06:32.051Z,100.00
2022-10-13T19:09:01.630Z,100.00
2022-10-13T19:11:30.642Z,100.00
2022-10-13T19:14:01.050Z,100.00
2022-10-13T19:16:31.449Z,100.00
2022-10-13T19:18:59.407Z,100.00
2022-10-13T19:21:27.571Z,100.00
2022-10-13T19:23:56.116Z,100.00
2022-10-13T19:26:26.732Z,100.00
2022-10-13T19:28:55.718Z,100.00
2022-10-13T19:31:26.301Z,100.00
2022-10-13T19:33:54.238Z,100.00
2022-10-13T19:36:24.059Z,100.00
2022-10-13T19:38:54.271Z,100.00
2022-10-13T19:41:22.319Z,100.00
2022-10-13T19:43:50.593Z,100.00
2022-10-13T19:46:18.468Z,100.00
2022-10-13T19:48:47.685Z,100.00
2022-10-13T19:51:15.659Z,100.00
2022-10-13T19:53:43.517Z,100.00
2022-10-13T19:56:20.567Z,100.00
2022-10-13T19:58:48.471Z,100.00
2022-10-13T20:01:18.951Z,100.00
2022-10-13T20:05:06.518Z,100.00
2022-10-13T20:07:34.523Z,100.00
2022-10-13T20:10:07.368Z,100.00
2022-10-13T20:12:39.490Z,100.00
2022-10-13T20:15:08.096Z,100.00
2022-10-13T20:17:35.999Z,100.00
2022-10-13T20:20:05.527Z,100.00
2022-10-13T20:22:34.103Z,100.00
2022-10-13T20:25:02.076Z,100.00
2022-10-13T20:27:29.867Z,100.00
2022-10-13T20:29:57.766Z,100.00
2022-10-13T20:32:26.875Z,100.00
2022-10-13T20:34:55.059Z,100.00
2022-10-13T20:37:24.573Z,100.00
2022-10-13T20:39:52.464Z,100.00
2022-10-13T20:42:20.343Z,100.00
2022-10-13T20:44:48.228Z,100.00
2022-10-13T20:47:16.048Z,100.00
2022-10-13T20:49:43.921Z,100.00
2022-10-13T20:52:11.809Z,100.00
2022-10-13T20:54:41.037Z,100.00
2022-10-13T20:57:08.869Z,100.00
2022-10-13T20:59:36.930Z,100.00
2022-10-13T21:02:04.865Z,100.00
2022-10-13T21:04:32.869Z,100.00
2022-10-13T21:07:00.767Z,100.00
2022-10-13T21:09:28.705Z,100.00
2022-10-13T21:11:58.034Z,100.00
2022-10-13T21:14:27.122Z,100.00
2022-10-13T21:16:55.300Z,100.00
2022-10-13T21:19:23.185Z,100.00
2022-10-13T21:21:51.004Z,100.00
2022-10-13T21:24:18.829Z,100.00
2022-10-13T21:26:46.672Z,100.00
2022-10-13T21:29:15.903Z,100.00
2022-10-13T21:31:43.755Z,100.00
2022-10-13T21:34:12.070Z,100.00
2022-10-13T21:36:44.136Z,100.00
2022-10-13T21:39:14.437Z,100.00
2022-10-13T21:41:42.312Z,100.00
2022-10-13T21:44:14.007Z,100.00
2022-10-13T21:46:43.425Z,100.00
2022-10-13T21:49:11.669Z,100.00
2022-10-13T21:51:41.532Z,100.00
2022-10-13T21:54:11.860Z,100.00
2022-10-13T21:56:41.246Z,100.00
2022-10-13T21:59:11.086Z,100.00
2022-10-13T22:01:39.158Z,100.00
2022-10-13T22:04:13.087Z,100.00
2022-10-13T22:06:41.289Z,100.00
2022-10-13T22:09:09.123Z,100.00
2022-10-13T22:11:38.630Z,100.00
2022-10-13T22:14:11.411Z,100.00
2022-10-13T22:16:41.761Z,100.00
2022-10-13T22:19:11.663Z,100.00
2022-10-13T22:21:41.926Z,100.00
2022-10-13T22:24:13.378Z,100.00
2022-10-13T22:26:42.114Z,100.00
2022-10-13T22:29:11.758Z,100.00
2022-10-13T22:31:39.686Z,100.00
2022-10-13T22:34:13.001Z,100.00
2022-10-13T22:36:44.707Z,100.00
2022-10-13T22:39:13.682Z,100.00
2022-10-13T22:41:41.637Z,100.00
2022-10-13T22:44:10.037Z,100.00
2022-10-13T22:46:38.923Z,100.00
2022-10-13T22:49:08.064Z,100.00
2022-10-13T22:51:37.795Z,100.00
2022-10-13T22:54:06.040Z,100.00
2022-10-13T22:56:34.998Z,100.00
2022-10-13T22:59:05.580Z,100.00
2022-10-13T23:01:33.324Z,100.00
2022-10-13T23:04:01.241Z,100.00
2022-10-13T23:06:30.992Z,100.00
2022-10-13T23:09:02.969Z,100.00
2022-10-13T23:11:30.954Z,100.00
2022-10-13T23:13:58.853Z,100.00
2022-10-13T23:16:28.429Z,100.00
2022-10-13T23:18:56.719Z,100.00
2022-10-13T23:21:27.038Z,100.00
2022-10-13T23:23:56.160Z,100.00
2022-10-13T23:26:25.928Z,100.00
2022-10-13T23:28:55.611Z,100.00
2022-10-13T23:31:23.949Z,100.00
2022-10-13T23:33:52.182Z,100.00
2022-10-13T23:36:22.481Z,100.00
2022-10-13T23:38:54.490Z,100.00
2022-10-13T23:41:22.483Z,100.00
2022-10-13T23:43:52.246Z,100.00
2022-10-13T23:46:20.428Z,100.00
2022-10-13T23:48:48.268Z,100.00
2022-10-13T23:51:18.078Z,100.00
2022-10-13T23:53:46.725Z,100.00
2022-10-13T23:56:16.296Z,100.00
2022-10-13T23:58:45.697Z,100.00
